Terminal Aerodrome Forecast
Issued by NWS Duluth, MN

Home | Current Version | Previous Version | Text Only | Print | Product List | Glossary On
Versions: 1 2 3 4 5 6 7 8 9 10 11 12 13 14 15 16 17 18 19 20 21 22 23 24 25
000
FTUS43 KDLH 260100 AAA
TAFINL
TAF AMD
KINL 260139Z 2602/2624 00000KT P6SM BKN025 OVC040
     FM260600 01003KT P6SM -SN SCT013 BKN025 OVC040
     FM260900 02007KT 2SM -SN BR OVC018
     FM261500 34010KT P6SM -SN OVC028
     FM261800 34011KT P6SM SCT050=

USA.gov is the U.S. government's official web portal to all federal, state and local government web resources and services.